Time;durP1;ratioP1;P1;durP2;ratioP2;P2;SDS_P1;SDS_P2;PMS_P1;PMS_P2;Temp;Humidity;BMP_temperature;BMP_pressure;BME280_temperature;BME280_humidity;BME280_pressure;Samples;Min_cycle;Max_cycle;Signal;HPM_P1;HPM_P2
2021/07/28 00:00:03;;;;;;;0.40;0.20;;;20.20;99.90;;;;;;4978327;28;20423;-71
2021/07/28 00:02:28;;;;;;;0.40;0.20;;;20.20;99.90;;;;;;4980264;28;20441;-68
2021/07/28 00:04:54;;;;;;;0.60;0.50;;;20.10;99.90;;;;;;4961381;28;20427;-68
2021/07/28 00:07:19;;;;;;;0.67;0.40;;;20.10;99.90;;;;;;4979733;28;20190;-67
2021/07/28 00:09:45;;;;;;;2.40;1.30;;;20.10;99.90;;;;;;4978218;28;20374;-66
2021/07/28 00:12:10;;;;;;;0.40;0.20;;;20.00;99.90;;;;;;4978800;28;20176;-69
2021/07/28 00:14:36;;;;;;;0.50;0.30;;;20.00;99.90;;;;;;4979108;28;20246;-69
2021/07/28 00:17:03;;;;;;;0.50;0.40;;;19.90;99.90;;;;;;4978814;28;20523;-69
2021/07/28 00:19:33;;;;;;;0.67;0.33;;;19.90;99.90;;;;;;4961822;28;20902;-67
2021/07/28 00:24:42;;;;;;;0.50;0.30;;;20.00;99.90;;;;;;4979516;28;20486;-69
2021/07/28 00:27:08;;;;;;;2.20;1.07;;;20.00;99.90;;;;;;4961210;28;20431;-68
2021/07/28 00:29:37;;;;;;;0.50;0.20;;;19.90;68.00;;;;;;4978318;28;20226;-67
2021/07/28 00:32:03;;;;;;;0.40;0.20;;;19.90;92.10;;;;;;4978122;28;20613;-68
2021/07/28 00:34:29;;;;;;;0.40;0.30;;;19.90;44.30;;;;;;4979320;28;20434;-69
2021/07/28 00:36:54;;;;;;;0.40;0.20;;;20.00;14.00;;;;;;4979714;28;20418;-70
2021/07/28 00:39:20;;;;;;;0.40;0.20;;;20.00;1.00;;;;;;4979450;28;20258;-70
2021/07/28 00:41:46;;;;;;;0.40;0.20;;;19.80;1.00;;;;;;4979528;28;20210;-68
2021/07/28 00:44:12;;;;;;;0.40;0.20;;;19.90;1.00;;;;;;4978887;28;20187;-70
2021/07/28 00:46:38;;;;;;;0.40;0.20;;;20.00;1.00;;;;;;4979279;28;20190;-70
2021/07/28 00:49:05;;;;;;;0.40;0.20;;;19.90;1.00;;;;;;4978280;28;20458;-68
2021/07/28 00:51:32;;;;;;;0.40;0.20;;;20.20;1.00;;;;;;4960736;28;20870;-68
2021/07/28 00:53:58;;;;;;;0.40;0.20;;;20.10;1.00;;;;;;4978054;28;20458;-66
2021/07/28 00:56:24;;;;;;;0.40;0.20;;;20.20;1.00;;;;;;4978494;28;20462;-69
2021/07/28 00:58:50;;;;;;;0.40;0.20;;;20.30;1.00;;;;;;4978356;28;20467;-67
2021/07/28 01:01:16;;;;;;;0.40;0.20;;;20.40;1.00;;;;;;4977827;28;20936;-68
2021/07/28 01:03:42;;;;;;;0.40;0.20;;;20.50;1.00;;;;;;4978284;28;20422;-69
2021/07/28 01:06:11;;;;;;;0.40;0.10;;;20.30;1.00;;;;;;4977872;28;20229;-69
2021/07/28 01:08:37;;;;;;;0.40;0.20;;;20.10;1.00;;;;;;4977473;28;20473;-67
2021/07/28 01:11:04;;;;;;;1.27;0.70;;;20.00;1.00;;;;;;4961156;28;20427;-69
2021/07/28 01:13:31;;;;;;;0.40;0.20;;;20.00;1.00;;;;;;4960850;28;20754;-68
2021/07/28 01:16:04;;;;;;;0.60;0.50;;;19.90;1.00;;;;;;4977755;28;20431;-68
2021/07/28 01:18:30;;;;;;;0.47;0.30;;;20.10;1.00;;;;;;4961041;28;20537;-68
2021/07/28 01:20:56;;;;;;;0.40;0.20;;;20.10;1.00;;;;;;4979066;28;20488;-69
2021/07/28 01:23:26;;;;;;;0.40;0.20;;;20.10;1.00;;;;;;4961638;28;20187;-69
2021/07/28 01:25:53;;;;;;;2.90;2.73;;;19.90;1.00;;;;;;4961454;28;20776;-68
2021/07/28 01:28:24;;;;;;;0.40;0.20;;;19.90;1.00;;;;;;4978147;28;20497;-68
2021/07/28 01:30:58;;;;;;;0.50;0.20;;;19.90;41.90;;;;;;4978638;28;20455;-67
2021/07/28 01:33:23;;;;;;;0.40;0.20;;;19.80;46.60;;;;;;4978487;28;20429;-67
2021/07/28 01:35:50;;;;;;;0.40;0.20;;;19.70;91.70;;;;;;4978491;28;20514;-67
2021/07/28 01:38:22;;;;;;;0.60;0.60;;;19.70;99.90;;;;;;4978120;28;20219;-67
2021/07/28 01:40:47;;;;;;;1.60;1.07;;;19.80;95.60;;;;;;4978049;28;20463;-68
2021/07/28 01:43:14;;;;;;;0.70;0.70;;;19.70;80.60;;;;;;4978630;28;20434;-68
2021/07/28 01:45:41;;;;;;;0.73;0.73;;;19.60;99.90;;;;;;4960712;28;20187;-69
2021/07/28 01:48:10;;;;;;;0.40;0.20;;;19.60;99.90;;;;;;4977191;28;20467;-66
2021/07/28 01:50:36;;;;;;;0.40;0.10;;;19.60;99.90;;;;;;4960946;28;20522;-69
2021/07/28 01:53:03;;;;;;;0.40;0.20;;;19.70;99.90;;;;;;4977730;28;20429;-68
2021/07/28 01:55:29;;;;;;;1.03;1.00;;;19.90;99.90;;;;;;4977496;28;20517;-69
2021/07/28 01:57:55;;;;;;;0.40;0.20;;;20.00;66.80;;;;;;4960981;28;20539;-69
2021/07/28 02:00:21;;;;;;;0.40;0.20;;;20.00;46.30;;;;;;4978551;28;20176;-69
2021/07/28 02:02:47;;;;;;;0.40;0.20;;;20.10;28.10;;;;;;4960258;28;20494;-68
2021/07/28 02:05:13;;;;;;;0.40;0.20;;;20.20;1.00;;;;;;4977165;28;20446;-67
2021/07/28 02:07:39;;;;;;;0.40;0.20;;;20.00;21.30;;;;;;4960933;28;20425;-69
2021/07/28 02:10:05;;;;;;;0.83;0.60;;;20.00;25.40;;;;;;4976482;28;20476;-69
2021/07/28 02:12:31;;;;;;;0.40;0.20;;;19.90;51.80;;;;;;4977007;28;20175;-68
2021/07/28 02:14:56;;;;;;;0.40;0.20;;;19.90;93.10;;;;;;4977158;28;20442;-67
2021/07/28 02:17:22;;;;;;;0.40;0.10;;;19.90;51.70;;;;;;4977052;28;20211;-68
2021/07/28 02:19:47;;;;;;;0.50;0.20;;;20.00;55.30;;;;;;4958897;28;20194;-68
2021/07/28 02:22:14;;;;;;;0.40;0.20;;;19.90;86.20;;;;;;4976193;28;20184;-69
2021/07/28 02:24:41;;;;;;;1.13;1.07;;;20.00;74.30;;;;;;4977054;28;20191;-67
2021/07/28 02:27:07;;;;;;;0.40;0.20;;;19.90;52.60;;;;;;4976025;28;20454;-69
2021/07/28 02:29:34;;;;;;;0.40;0.20;;;19.80;70.10;;;;;;4976313;28;20525;-69
2021/07/28 02:32:01;;;;;;;0.40;0.20;;;19.90;81.50;;;;;;4978397;28;20938;-71
2021/07/28 02:34:28;;;;;;;0.50;0.20;;;19.90;57.80;;;;;;4978300;28;20747;-69
2021/07/28 02:36:53;;;;;;;1.00;0.53;;;19.80;90.30;;;;;;4975619;28;20433;-67
2021/07/28 02:39:19;;;;;;;0.43;0.20;;;19.60;99.90;;;;;;4975627;28;20526;-69
2021/07/28 02:41:44;;;;;;;0.40;0.20;;;19.50;99.90;;;;;;4975654;28;20203;-69
2021/07/28 02:44:10;;;;;;;2.23;1.63;;;19.40;99.90;;;;;;4975637;28;20179;-67
2021/07/28 02:46:35;;;;;;;1.80;0.80;;;19.40;99.90;;;;;;4976471;28;20620;-70
2021/07/28 02:49:01;;;;;;;0.40;0.20;;;19.30;99.90;;;;;;4958783;28;20215;-68
2021/07/28 02:51:26;;;;;;;0.70;0.47;;;19.30;99.90;;;;;;4958456;28;20180;-69
2021/07/28 02:53:52;;;;;;;0.50;0.20;;;19.40;99.90;;;;;;4975665;28;20191;-69
2021/07/28 02:56:17;;;;;;;0.40;0.20;;;19.30;99.90;;;;;;4975568;28;20203;-69
2021/07/28 02:58:43;;;;;;;0.40;0.20;;;19.40;99.90;;;;;;4975784;28;20187;-66
2021/07/28 03:01:08;;;;;;;2.17;1.97;;;19.40;99.90;;;;;;4975966;28;20187;-66
2021/07/28 03:03:34;;;;;;;0.70;0.63;;;19.20;99.90;;;;;;4975455;28;20258;-66
2021/07/28 03:06:02;;;;;;;1.60;1.03;;;19.20;99.90;;;;;;4975442;28;20191;-66
2021/07/28 03:08:27;;;;;;;1.03;1.03;;;19.20;99.90;;;;;;4975593;28;20199;-66
2021/07/28 03:10:53;;;;;;;1.20;0.73;;;19.20;99.90;;;;;;4958364;28;20571;-66
2021/07/28 03:13:18;;;;;;;2.23;2.03;;;19.10;99.90;;;;;;4975403;28;20211;-66
2021/07/28 03:15:44;;;;;;;0.97;0.97;;;18.90;99.90;;;;;;4975463;28;20187;-68
2021/07/28 03:18:09;;;;;;;0.50;0.30;;;18.80;99.90;;;;;;4975078;28;20219;-68
2021/07/28 03:20:35;;;;;;;1.23;0.80;;;18.90;99.90;;;;;;4975402;28;20211;-68
2021/07/28 03:23:00;;;;;;;0.40;0.20;;;18.90;99.90;;;;;;4975295;28;20214;-67
2021/07/28 03:25:26;;;;;;;0.50;0.40;;;18.80;99.90;;;;;;4975439;28;20726;-66
2021/07/28 03:27:51;;;;;;;0.50;0.30;;;18.90;99.90;;;;;;4975295;28;20201;-67
2021/07/28 03:30:17;;;;;;;2.67;2.10;;;18.90;99.90;;;;;;4975242;28;20266;-67
2021/07/28 03:32:42;;;;;;;0.43;0.20;;;18.80;99.90;;;;;;4975340;28;20180;-67
2021/07/28 03:35:08;;;;;;;0.40;0.20;;;18.90;99.90;;;;;;4975235;28;20184;-67
2021/07/28 03:37:34;;;;;;;0.40;0.20;;;19.00;99.90;;;;;;4974880;28;20182;-67
2021/07/28 03:40:00;;;;;;;0.40;0.20;;;19.10;99.90;;;;;;4975123;28;20883;-67
2021/07/28 03:42:31;;;;;;;0.50;0.30;;;19.10;99.90;;;;;;4975309;28;20179;-67
2021/07/28 03:45:00;;;;;;;0.60;0.47;;;19.10;99.90;;;;;;4974916;28;20458;-67
2021/07/28 03:47:26;;;;;;;1.27;1.20;;;19.00;99.90;;;;;;4975466;28;20750;-67
2021/07/28 03:49:52;;;;;;;0.50;0.30;;;19.10;99.90;;;;;;4975003;28;20470;-67
2021/07/28 03:52:18;;;;;;;0.40;0.10;;;19.20;99.90;;;;;;4975094;28;20431;-67
2021/07/28 03:54:43;;;;;;;8.50;7.80;;;19.20;99.90;;;;;;4975033;28;20258;-67
2021/07/28 03:57:12;;;;;;;1.43;1.13;;;19.10;99.90;;;;;;4974754;28;20439;-68
2021/07/28 03:59:38;;;;;;;0.40;0.20;;;19.00;99.90;;;;;;4974789;28;20187;-67
2021/07/28 04:02:05;;;;;;;0.40;0.20;;;18.90;99.90;;;;;;4973750;28;20446;-67
2021/07/28 04:04:31;;;;;;;0.87;0.70;;;18.90;99.90;;;;;;4958097;28;20435;-67
2021/07/28 04:06:57;;;;;;;1.67;1.57;;;19.00;99.90;;;;;;4974940;28;20927;-67
2021/07/28 04:09:22;;;;;;;0.50;0.30;;;19.10;99.90;;;;;;4974773;28;20243;-67
2021/07/28 04:11:48;;;;;;;0.63;0.60;;;18.90;99.90;;;;;;4974846;28;20183;-67
2021/07/28 04:14:13;;;;;;;0.80;0.47;;;18.90;99.90;;;;;;4975171;28;20184;-67
2021/07/28 04:16:39;;;;;;;1.63;1.03;;;18.80;99.90;;;;;;4974822;28;20222;-67
2021/07/28 04:19:04;;;;;;;0.40;0.20;;;18.80;99.90;;;;;;4974655;28;20195;-68
2021/07/28 04:21:30;;;;;;;0.40;0.20;;;18.80;99.90;;;;;;4974882;28;20183;-67
2021/07/28 04:23:55;;;;;;;1.23;0.53;;;18.70;99.90;;;;;;4974783;28;20190;-67
2021/07/28 04:26:21;;;;;;;0.40;0.20;;;18.60;99.90;;;;;;4974723;28;20238;-68
2021/07/28 04:28:47;;;;;;;0.40;0.20;;;18.70;99.90;;;;;;4974659;28;20227;-67
2021/07/28 04:31:12;;;;;;;0.40;0.20;;;18.70;99.90;;;;;;4974631;28;20176;-67
2021/07/28 04:33:38;;;;;;;0.40;0.20;;;18.50;99.90;;;;;;4957613;28;20495;-68
2021/07/28 04:36:04;;;;;;;0.40;0.20;;;18.60;99.90;;;;;;4974457;28;20585;-67
2021/07/28 04:38:29;;;;;;;0.60;0.60;;;18.80;99.90;;;;;;4974508;28;20208;-67
2021/07/28 04:40:55;;;;;;;0.70;0.43;;;18.90;99.90;;;;;;4974561;28;20514;-67
2021/07/28 04:43:20;;;;;;;0.50;0.40;;;19.00;99.90;;;;;;4974636;28;20313;-67
2021/07/28 04:45:46;;;;;;;0.40;0.20;;;19.60;99.90;;;;;;4976781;28;20190;-67
2021/07/28 04:48:11;;;;;;;0.73;0.73;;;20.30;18.10;;;;;;4977946;28;20671;-67
2021/07/28 04:50:37;;;;;;;0.57;0.57;;;21.10;1.00;;;;;;4978365;28;20505;-67
2021/07/28 04:53:03;;;;;;;1.53;1.43;;;21.40;1.00;;;;;;4978062;28;20462;-67
2021/07/28 04:55:29;;;;;;;0.67;0.67;;;21.70;99.90;;;;;;4978196;28;20180;-67
2021/07/28 04:57:56;;;;;;;0.60;0.50;;;22.60;1.00;;;;;;4977924;28;20434;-67
2021/07/28 05:00:21;;;;;;;0.50;0.20;;;23.80;1.00;;;;;;4960603;28;20534;-69
2021/07/28 05:02:47;;;;;;;0.47;0.20;;;24.10;1.00;;;;;;4977584;28;20423;-69
2021/07/28 05:05:12;;;;;;;0.40;0.20;;;23.90;99.90;;;;;;4977539;28;20195;-68
2021/07/28 05:07:38;;;;;;;0.40;0.20;;;23.10;1.00;;;;;;4960611;28;20289;-68
2021/07/28 05:10:04;;;;;;;0.40;0.20;;;23.00;2.30;;;;;;4977598;28;20356;-68
2021/07/28 05:12:30;;;;;;;0.40;0.20;;;22.40;1.00;;;;;;4977644;28;20183;-68
2021/07/28 05:14:57;;;;;;;0.40;0.20;;;22.60;99.90;;;;;;4960538;28;20574;-68
2021/07/28 05:17:24;;;;;;;0.70;0.70;;;24.50;1.00;;;;;;4977420;28;20430;-69
2021/07/28 05:19:50;;;;;;;0.40;0.20;;;25.60;1.00;;;;;;4977366;28;20911;-68
2021/07/28 05:22:15;;;;;;;0.40;0.10;;;26.50;99.90;;;;;;4977428;28;20442;-68
2021/07/28 05:24:41;;;;;;;0.43;0.17;;;27.10;99.90;;;;;;4977389;28;20190;-68
2021/07/28 05:27:06;;;;;;;0.40;0.20;;;27.00;99.90;;;;;;4977318;28;20179;-68
2021/07/28 05:29:32;;;;;;;1.30;1.23;;;28.00;1.00;;;;;;4977127;28;20203;-68
2021/07/28 05:31:58;;;;;;;0.50;0.20;;;29.00;1.00;;;;;;4977049;28;20509;-68
2021/07/28 05:34:23;;;;;;;2.20;0.97;;;28.60;1.00;;;;;;4977112;28;20427;-68
2021/07/28 05:36:49;;;;;;;0.40;0.20;;;26.30;99.90;;;;;;4977032;28;20262;-68
2021/07/28 05:39:14;;;;;;;0.40;0.20;;;25.20;1.00;;;;;;4976773;28;20183;-68
2021/07/28 05:41:40;;;;;;;1.00;0.60;;;24.60;99.90;;;;;;4977202;28;20270;-68
2021/07/28 05:44:08;;;;;;;0.50;0.20;;;23.70;66.90;;;;;;4977243;28;20277;-68
2021/07/28 05:46:35;;;;;;;0.40;0.20;;;22.70;1.00;;;;;;4977030;28;20183;-68
2021/07/28 05:49:01;;;;;;;0.40;0.20;;;22.30;99.90;;;;;;4976830;28;20470;-68
2021/07/28 05:51:26;;;;;;;0.40;0.20;;;22.30;99.90;;;;;;4976828;28;20910;-68
2021/07/28 05:53:52;;;;;;;0.40;0.10;;;22.60;1.00;;;;;;4976854;28;20231;-68
2021/07/28 05:56:17;;;;;;;1.47;1.17;;;22.90;1.00;;;;;;4975855;28;20640;-68
2021/07/28 05:58:43;;;;;;;0.50;0.30;;;23.00;1.00;;;;;;4976493;28;20190;-69
2021/07/28 06:01:08;;;;;;;0.40;0.20;;;23.20;47.00;;;;;;4976427;28;20232;-69
2021/07/28 06:03:34;;;;;;;0.40;0.20;;;23.40;99.90;;;;;;4976841;28;20194;-69
2021/07/28 06:05:59;;;;;;;1.53;1.43;;;23.40;99.90;;;;;;4976475;28;20492;-68
2021/07/28 06:08:25;;;;;;;0.50;0.33;;;23.20;1.00;;;;;;4976381;28;20207;-68
2021/07/28 06:10:51;;;;;;;0.60;0.57;;;23.90;1.00;;;;;;4976473;28;20171;-68
2021/07/28 06:13:17;;;;;;;2.93;2.63;;;25.70;1.00;;;;;;4976491;28;20768;-68
2021/07/28 06:15:46;;;;;;;0.50;0.20;;;27.10;99.90;;;;;;4976406;28;20180;-68
2021/07/28 06:18:11;;;;;;;1.43;0.70;;;28.20;1.00;;;;;;4975715;28;20934;-68
2021/07/28 06:20:37;;;;;;;0.50;0.20;;;29.40;1.00;;;;;;4976135;28;20423;-69
2021/07/28 06:23:03;;;;;;;1.57;0.60;;;29.70;1.00;;;;;;4976171;28;20563;-69
2021/07/28 06:25:28;;;;;;;0.70;0.37;;;30.80;1.00;;;;;;4976155;28;20634;-69
2021/07/28 06:27:54;;;;;;;0.50;0.20;;;30.30;1.00;;;;;;4976202;28;20506;-68
2021/07/28 06:30:19;;;;;;;0.50;0.20;;;30.70;1.00;;;;;;4975879;28;20202;-68
2021/07/28 06:32:45;;;;;;;0.50;0.20;;;30.60;1.00;;;;;;4976031;28;20501;-68
2021/07/28 06:35:11;;;;;;;0.60;0.20;;;28.90;1.00;;;;;;4975873;28;20707;-68
2021/07/28 06:37:36;;;;;;;0.90;0.50;;;27.80;1.00;;;;;;4958594;28;20439;-68
2021/07/28 06:40:02;;;;;;;0.50;0.40;;;27.10;1.00;;;;;;4975703;28;20182;-68
2021/07/28 06:42:28;;;;;;;0.50;0.20;;;26.60;26.10;;;;;;4975717;28;20171;-69
2021/07/28 06:44:53;;;;;;;0.50;0.20;;;26.00;99.90;;;;;;4976112;28;20187;-68
2021/07/28 06:47:19;;;;;;;0.50;0.20;;;26.00;99.90;;;;;;4967688;28;20188;-68
2021/07/28 06:49:45;;;;;;;0.60;0.50;;;26.00;99.90;;;;;;4975533;28;20640;-68
2021/07/28 06:52:10;;;;;;;4.03;2.60;;;25.20;1.00;;;;;;4966567;28;20443;-68
2021/07/28 06:54:36;;;;;;;0.50;0.20;;;24.70;1.00;;;;;;4969714;28;20187;-68
2021/07/28 06:57:02;;;;;;;0.50;0.20;;;24.20;99.90;;;;;;4975455;28;20183;-68
2021/07/28 06:59:27;;;;;;;0.50;0.20;;;24.40;99.90;;;;;;4974218;28;20219;-68
2021/07/28 07:01:53;;;;;;;0.53;0.27;;;24.80;99.90;;;;;;4956032;29;20523;-68
2021/07/28 07:04:18;;;;;;;0.50;0.27;;;25.00;1.00;;;;;;4956098;28;20640;-68
2021/07/28 07:06:44;;;;;;;0.60;0.50;;;25.00;1.00;;;;;;4956127;29;20206;-68
2021/07/28 07:09:10;;;;;;;0.50;0.20;;;25.50;99.90;;;;;;4955355;28;20672;-68
2021/07/28 07:11:45;;;;;;;3.30;1.60;;;26.30;99.90;;;;;;4956507;29;20645;-68
2021/07/28 07:17:05;;;;;;;0.50;0.20;;;27.90;1.00;;;;;;4955821;29;20513;-68
2021/07/28 07:19:31;;;;;;;0.70;0.63;;;28.20;1.00;;;;;;4956233;29;20432;-68
2021/07/28 07:21:57;;;;;;;0.50;0.20;;;27.50;1.00;;;;;;4956343;29;20199;-68
2021/07/28 07:24:23;;;;;;;0.70;0.40;;;26.80;1.00;;;;;;4956279;29;20265;-68
2021/07/28 07:26:49;;;;;;;0.70;0.60;;;25.60;99.90;;;;;;4955726;29;20226;-68
2021/07/28 07:29:14;;;;;;;0.70;0.40;;;25.80;99.90;;;;;;4956109;29;20523;-68
2021/07/28 07:31:41;;;;;;;0.50;0.23;;;27.50;1.00;;;;;;4956186;29;20621;-68
2021/07/28 07:34:07;;;;;;;1.40;1.30;;;29.50;1.00;;;;;;4956336;29;20738;-68
2021/07/28 07:36:32;;;;;;;0.50;0.30;;;29.20;1.00;;;;;;4956105;29;20519;-68
2021/07/28 07:38:58;;;;;;;0.83;0.50;;;27.40;1.00;;;;;;4956026;29;20316;-67
2021/07/28 07:41:23;;;;;;;0.50;0.10;;;26.20;77.80;;;;;;4955728;29;20195;-67
2021/07/28 07:43:49;;;;;;;0.50;0.20;;;25.50;99.90;;;;;;4956430;29;20263;-67
2021/07/28 07:46:15;;;;;;;0.50;0.30;;;25.50;99.90;;;;;;4956399;29;20184;-68
2021/07/28 07:48:40;;;;;;;0.40;0.20;;;25.10;1.00;;;;;;4956140;29;20219;-67
2021/07/28 07:51:06;;;;;;;1.90;1.13;;;25.20;1.00;;;;;;4956629;29;20189;-67
2021/07/28 07:53:31;;;;;;;0.63;0.60;;;24.90;1.00;;;;;;4956276;29;20577;-67
2021/07/28 07:55:58;;;;;;;0.50;0.20;;;24.60;1.00;;;;;;4939759;29;20188;-67
2021/07/28 07:58:24;;;;;;;1.20;0.50;;;24.00;1.00;;;;;;4957033;29;20188;-67
2021/07/28 08:00:50;;;;;;;1.77;1.67;;;23.50;99.90;;;;;;4971090;28;20435;-67
2021/07/28 08:03:16;;;;;;;0.50;0.30;;;23.30;1.00;;;;;;4975996;28;20458;-67
2021/07/28 08:05:42;;;;;;;1.17;0.90;;;23.00;99.90;;;;;;4958368;28;20935;-67
2021/07/28 08:08:07;;;;;;;0.57;0.20;;;22.80;1.00;;;;;;4975384;28;20199;-67
2021/07/28 08:10:33;;;;;;;1.57;0.93;;;23.10;99.90;;;;;;4975158;28;20431;-67
2021/07/28 08:12:58;;;;;;;0.73;0.50;;;23.80;1.00;;;;;;4974807;28;20187;-67
2021/07/28 08:15:25;;;;;;;0.50;0.40;;;23.90;1.00;;;;;;4975035;28;20266;-67
2021/07/28 08:17:50;;;;;;;0.50;0.20;;;23.90;99.90;;;;;;4974999;28;20183;-67
2021/07/28 08:20:16;;;;;;;1.23;0.67;;;24.30;99.90;;;;;;4976116;28;20437;-67
2021/07/28 08:22:42;;;;;;;0.50;0.20;;;24.40;35.40;;;;;;4961754;28;20258;-67
2021/07/28 08:25:08;;;;;;;0.50;0.20;;;24.10;99.90;;;;;;4978599;28;20188;-67
2021/07/28 08:27:33;;;;;;;5.80;2.00;;;24.20;99.90;;;;;;4978654;28;20198;-67
2021/07/28 08:29:59;;;;;;;1.47;0.97;;;24.00;1.00;;;;;;4978188;28;20966;-67
2021/07/28 08:32:25;;;;;;;0.50;0.30;;;23.30;99.90;;;;;;4978760;28;20183;-67
2021/07/28 08:34:50;;;;;;;2.50;1.23;;;23.00;99.90;;;;;;4978667;28;20246;-67
2021/07/28 08:37:18;;;;;;;0.60;0.30;;;23.00;1.00;;;;;;4978564;28;20430;-67
2021/07/28 08:39:44;;;;;;;1.03;0.93;;;23.40;1.00;;;;;;4978463;28;20233;-67
2021/07/28 08:42:10;;;;;;;0.87;0.87;;;23.90;16.20;;;;;;4978508;28;20442;-67
2021/07/28 08:44:38;;;;;;;0.80;0.80;;;24.00;1.00;;;;;;4978387;28;20427;-67
2021/07/28 08:47:05;;;;;;;0.70;0.30;;;24.00;1.00;;;;;;4978215;28;20763;-67
2021/07/28 08:49:33;;;;;;;1.67;0.40;;;24.30;99.90;;;;;;4978063;28;20470;-67
2021/07/28 08:51:59;;;;;;;0.50;0.20;;;23.80;1.00;;;;;;4978778;28;20423;-67
2021/07/28 08:54:24;;;;;;;1.33;1.23;;;23.90;1.00;;;;;;4978211;28;20461;-67
2021/07/28 08:56:52;;;;;;;0.50;0.20;;;23.80;1.00;;;;;;4961193;28;20187;-67
2021/07/28 08:59:29;;;;;;;0.50;0.20;;;23.80;1.00;;;;;;4977967;28;20266;-68
2021/07/28 09:01:56;;;;;;;1.17;0.83;;;24.20;99.90;;;;;;4977693;28;20426;-68
2021/07/28 09:04:22;;;;;;;0.63;0.47;;;23.90;20.90;;;;;;4978141;28;20466;-69
2021/07/28 09:06:48;;;;;;;0.70;0.60;;;23.70;99.90;;;;;;4960657;28;21172;-69
2021/07/28 09:09:13;;;;;;;0.50;0.20;;;23.80;99.90;;;;;;4977667;28;20646;-69
2021/07/28 09:12:00;;;;;;;2.10;2.00;;;24.10;99.90;;;;;;4977878;28;20183;-69
2021/07/28 09:14:29;;;;;;;0.50;0.30;;;24.40;51.80;;;;;;4977586;28;20187;-69
2021/07/28 09:17:17;;;;;;;1.27;1.17;;;24.50;1.00;;;;;;4960553;28;20476;-69
2021/07/28 09:19:50;;;;;;;0.50;0.30;;;24.70;1.00;;;;;;4960886;28;20435;-69
2021/07/28 09:22:21;;;;;;;0.50;0.20;;;24.70;99.90;;;;;;4960538;28;20439;-69
2021/07/28 09:25:06;;;;;;;0.87;0.50;;;24.50;1.00;;;;;;4977785;28;20764;-69
2021/07/28 09:27:51;;;;;;;0.53;0.23;;;24.40;1.00;;;;;;4977294;28;20559;-69
2021/07/28 09:30:24;;;;;;;0.50;0.20;;;24.80;99.90;;;;;;4977436;28;20546;-69
2021/07/28 09:33:10;;;;;;;0.60;0.30;;;25.70;99.90;;;;;;4977815;28;20423;-66
2021/07/28 09:35:54;;;;;;;0.70;0.20;;;26.20;44.30;;;;;;4976994;28;20888;-66
2021/07/28 09:38:37;;;;;;;0.50;0.30;;;26.10;38.30;;;;;;4977101;28;20411;-66
2021/07/28 09:41:26;;;;;;;0.50;0.20;;;26.30;1.00;;;;;;4977316;28;20445;-66
2021/07/28 09:44:00;;;;;;;0.50;0.20;;;26.10;17.00;;;;;;4977180;28;20486;-66
2021/07/28 09:46:36;;;;;;;0.50;0.20;;;25.70;31.80;;;;;;4977130;28;20431;-69
2021/07/28 09:49:04;;;;;;;1.23;0.63;;;25.30;99.90;;;;;;4959943;28;20995;-69
2021/07/28 09:51:35;;;;;;;0.50;0.17;;;25.80;97.10;;;;;;4959903;28;20873;-69
2021/07/28 09:54:07;;;;;;;0.73;0.70;;;25.20;99.90;;;;;;4963345;28;20896;-69
2021/07/28 09:56:36;;;;;;;0.50;0.20;;;24.70;99.90;;;;;;4957740;29;20929;-69
2021/07/28 09:59:04;;;;;;;0.60;0.37;;;24.00;1.00;;;;;;4957646;29;20427;-69
2021/07/28 10:01:32;;;;;;;1.57;1.47;;;24.20;1.00;;;;;;4938687;29;20440;-69
2021/07/28 10:03:59;;;;;;;0.50;0.20;;;24.60;99.90;;;;;;4938614;29;20492;-69
2021/07/28 10:06:30;;;;;;;0.60;0.40;;;24.90;99.90;;;;;;4937977;28;20837;-69
2021/07/28 10:08:57;;;;;;;0.60;0.40;;;25.00;99.90;;;;;;4969206;28;20466;-69
2021/07/28 10:11:23;;;;;;;0.83;0.77;;;25.90;47.50;;;;;;4959876;28;20482;-69
2021/07/28 10:13:51;;;;;;;0.50;0.20;;;26.60;1.00;;;;;;4976991;28;20994;-69
2021/07/28 10:16:17;;;;;;;1.07;0.77;;;26.60;1.00;;;;;;4977053;28;20514;-69
2021/07/28 10:18:45;;;;;;;0.97;0.87;;;26.70;1.00;;;;;;4976431;28;20497;-69
2021/07/28 10:21:11;;;;;;;0.80;0.70;;;26.20;1.00;;;;;;4976528;28;20525;-69
2021/07/28 10:23:37;;;;;;;1.93;0.77;;;25.80;1.00;;;;;;4959990;28;20886;-69
2021/07/28 10:26:04;;;;;;;0.60;0.50;;;25.60;1.00;;;;;;4956619;29;20188;-69
2021/07/28 10:28:30;;;;;;;0.50;0.20;;;25.80;1.00;;;;;;4956603;29;20482;-69
2021/07/28 10:31:18;;;;;;;0.50;0.20;;;25.70;1.00;;;;;;4956926;29;20432;-69
2021/07/28 10:33:54;;;;;;;0.50;0.20;;;25.70;1.00;;;;;;4957370;29;20195;-69
2021/07/28 10:36:41;;;;;;;0.50;0.20;;;25.80;1.00;;;;;;4957627;29;20434;-69
2021/07/28 10:39:07;;;;;;;1.07;0.60;;;25.90;1.00;;;;;;4957978;29;20939;-69
2021/07/28 10:41:39;;;;;;;0.60;0.40;;;25.90;1.00;;;;;;4957500;29;20432;-67
2021/07/28 10:44:10;;;;;;;0.70;0.43;;;25.90;1.00;;;;;;4939866;29;20745;-65
2021/07/28 10:46:56;;;;;;;2.30;1.50;;;26.20;1.00;;;;;;4956738;29;20861;-66
2021/07/28 10:49:34;;;;;;;0.50;0.20;;;26.00;1.00;;;;;;4939680;29;20476;-66
2021/07/28 10:52:00;;;;;;;0.63;0.47;;;26.00;1.00;;;;;;4963235;28;20427;-66
2021/07/28 10:54:45;;;;;;;0.50;0.30;;;26.60;1.00;;;;;;4976067;28;20431;-66
2021/07/28 10:57:33;;;;;;;0.60;0.30;;;26.70;1.00;;;;;;4975845;28;20418;-66
2021/07/28 11:00:02;;;;;;;0.87;0.87;;;26.70;1.00;;;;;;4975996;28;20427;-65
2021/07/28 11:02:56;;;;;;;3.30;3.00;;;27.20;1.00;;;;;;4976230;28;20429;-66
2021/07/28 11:05:26;;;;;;;0.63;0.63;;;26.80;1.00;;;;;;4975113;28;20451;-66
2021/07/28 11:08:05;;;;;;;0.50;0.20;;;26.60;1.00;;;;;;4942757;29;20506;-65
2021/07/28 11:10:36;;;;;;;0.60;0.30;;;26.30;1.00;;;;;;4948992;29;20455;-66
2021/07/28 11:13:08;;;;;;;1.47;0.67;;;26.60;1.00;;;;;;4936715;29;20464;-66
2021/07/28 11:15:34;;;;;;;0.97;0.87;;;26.50;1.00;;;;;;4920798;29;20867;-65
2021/07/28 11:18:00;;;;;;;0.50;0.20;;;26.40;1.00;;;;;;4936911;29;20480;-66
2021/07/28 11:20:31;;;;;;;0.50;0.20;;;26.00;1.00;;;;;;4937255;29;20440;-65
2021/07/28 11:23:21;;;;;;;1.10;1.00;;;26.30;1.00;;;;;;4942119;29;20287;-66
2021/07/28 11:25:50;;;;;;;0.73;0.50;;;26.30;1.00;;;;;;4956981;29;20440;-66
2021/07/28 11:28:22;;;;;;;3.03;2.40;;;26.20;32.60;;;;;;4956200;29;20447;-66
2021/07/28 11:31:02;;;;;;;0.50;0.20;;;25.90;1.00;;;;;;4939570;29;20971;-66
2021/07/28 11:33:29;;;;;;;1.47;1.03;;;26.00;9.20;;;;;;4961210;28;20492;-66
2021/07/28 11:35:55;;;;;;;1.03;0.40;;;26.30;1.00;;;;;;4976285;28;20441;-66
2021/07/28 11:38:23;;;;;;;0.50;0.40;;;26.20;1.00;;;;;;4975762;28;20480;-65
2021/07/28 11:40:54;;;;;;;0.60;0.40;;;26.30;1.00;;;;;;4947621;29;20624;-66
2021/07/28 11:43:20;;;;;;;0.50;0.20;;;26.40;1.00;;;;;;4955774;29;20475;-66
2021/07/28 11:45:46;;;;;;;1.10;0.83;;;26.60;1.00;;;;;;4955929;29;20447;-66
2021/07/28 11:48:32;;;;;;;1.23;0.67;;;26.90;1.00;;;;;;4955693;29;20503;-66
2021/07/28 11:51:05;;;;;;;0.50;0.20;;;27.30;1.00;;;;;;4956102;29;20172;-66
2021/07/28 11:53:32;;;;;;;0.87;0.67;;;27.60;1.00;;;;;;4955970;28;20432;-69
2021/07/28 11:56:11;;;;;;;0.50;0.27;;;27.60;1.00;;;;;;4971215;28;20431;-67
2021/07/28 11:58:44;;;;;;;0.50;0.20;;;27.30;1.00;;;;;;4978869;28;20426;-66
2021/07/28 12:01:19;;;;;;;0.50;0.20;;;26.40;1.00;;;;;;4979239;28;20475;-66
2021/07/28 12:03:50;;;;;;;1.17;0.83;;;26.50;1.00;;;;;;4978815;28;20430;-66
2021/07/28 12:06:27;;;;;;;0.60;0.40;;;26.70;1.00;;;;;;4978954;28;20446;-66
2021/07/28 12:09:05;;;;;;;0.50;0.20;;;27.30;1.00;;;;;;4978555;28;20462;-66
2021/07/28 12:11:55;;;;;;;1.50;0.50;;;27.40;1.00;;;;;;4978608;28;20903;-66
2021/07/28 12:14:32;;;;;;;1.47;1.37;;;26.60;1.00;;;;;;4972293;28;20446;-66
2021/07/28 12:17:13;;;;;;;0.53;0.27;;;26.30;1.00;;;;;;4959375;29;20439;-66
2021/07/28 12:19:39;;;;;;;0.50;0.40;;;26.50;1.00;;;;;;4958941;29;20427;-67
2021/07/28 12:22:12;;;;;;;0.57;0.20;;;27.00;1.00;;;;;;4942318;29;20443;-67
2021/07/28 12:24:44;;;;;;;1.10;0.57;;;27.30;1.00;;;;;;4959192;29;20503;-67
2021/07/28 12:27:25;;;;;;;0.50;0.30;;;27.20;1.00;;;;;;4959207;29;20431;-67
2021/07/28 12:29:59;;;;;;;0.50;0.30;;;27.00;1.00;;;;;;4959815;29;20506;-67
2021/07/28 12:32:40;;;;;;;0.50;0.20;;;26.80;1.00;;;;;;4942260;29;20507;-68
2021/07/28 12:35:27;;;;;;;0.50;0.27;;;26.90;1.00;;;;;;4942251;29;20431;-68
2021/07/28 12:38:12;;;;;;;0.50;0.20;;;27.30;1.00;;;;;;4928665;29;20556;-68
2021/07/28 12:41:05;;;;;;;0.97;0.37;;;27.30;1.00;;;;;;4958265;29;20428;-66
2021/07/28 12:43:36;;;;;;;0.50;0.20;;;27.50;1.00;;;;;;4958759;29;20420;-66
2021/07/28 12:46:04;;;;;;;0.50;0.40;;;27.50;1.00;;;;;;4958895;29;20430;-69
2021/07/28 12:48:34;;;;;;;1.27;1.20;;;27.20;1.00;;;;;;4958322;29;20503;-65
2021/07/28 12:51:01;;;;;;;0.50;0.20;;;27.40;1.00;;;;;;4958469;29;20431;-67
2021/07/28 12:53:28;;;;;;;0.50;0.20;;;27.70;1.00;;;;;;4959035;29;20454;-69
2021/07/28 12:55:55;;;;;;;0.50;0.20;;;27.40;1.00;;;;;;4971016;28;20461;-67
2021/07/28 12:58:21;;;;;;;0.60;0.30;;;27.20;1.00;;;;;;4977815;28;20427;-67
2021/07/28 13:00:47;;;;;;;2.40;1.47;;;27.00;1.00;;;;;;4960631;28;20430;-66
2021/07/28 13:03:20;;;;;;;2.03;1.70;;;26.70;1.00;;;;;;4960786;28;20994;-69